createdAt,value
2023-01-29T00:02:58.676Z,12.80
2023-01-29T00:08:00.566Z,11.80
2023-01-29T00:13:02.084Z,11.90
2023-01-29T00:18:03.881Z,10.20
2023-01-29T00:23:05.377Z,12.10
2023-01-29T00:28:07.247Z,12.10
2023-01-29T00:33:08.743Z,13.50
2023-01-29T00:38:10.720Z,17.10
2023-01-29T00:43:30.437Z,10.80
2023-01-29T00:48:32.529Z,13.90
2023-01-29T00:53:34.045Z,10.30
2023-01-29T00:58:35.651Z,9.20
2023-01-29T01:03:42.474Z,10.40
2023-01-29T01:09:02.779Z,11.90
2023-01-29T01:14:04.273Z,10.40
2023-01-29T01:19:06.071Z,8.80
2023-01-29T01:24:07.782Z,11.20
2023-01-29T01:29:09.525Z,7.70
2023-01-29T01:34:11.356Z,7.50
2023-01-29T01:39:12.918Z,5.20
2023-01-29T01:44:51.584Z,8.80
2023-01-29T01:49:56.458Z,5.60
2023-01-29T01:55:00.093Z,6.60
2023-01-29T02:00:11.583Z,9.10
2023-01-29T02:05:32.872Z,6.70
2023-01-29T02:10:47.727Z,6.70
2023-01-29T02:15:50.659Z,5.90
2023-01-29T02:21:29.256Z,7.20
2023-01-29T02:26:55.424Z,11.20
2023-01-29T02:32:11.899Z,7.60
2023-01-29T02:37:14.426Z,7.10
2023-01-29T02:42:32.353Z,7.60
2023-01-29T02:47:57.516Z,7.70
2023-01-29T02:53:07.941Z,9.20
2023-01-29T02:58:28.070Z,7.80
2023-01-29T03:03:41.819Z,7.90
2023-01-29T03:08:50.104Z,8.70
2023-01-29T03:14:04.421Z,7.70
2023-01-29T03:19:10.901Z,8.40
2023-01-29T03:24:33.969Z,7.60
2023-01-29T03:29:56.841Z,7.70
2023-01-29T03:35:04.841Z,7.50
2023-01-29T03:40:08.201Z,7.40
2023-01-29T03:45:24.321Z,7.90
2023-01-29T03:50:37.450Z,7.30
2023-01-29T03:56:02.041Z,7.20
2023-01-29T04:01:06.953Z,7.40
2023-01-29T04:06:30.580Z,7.00
2023-01-29T04:11:36.159Z,8.30
2023-01-29T04:16:41.966Z,9.00
2023-01-29T04:21:45.393Z,7.40
2023-01-29T04:26:55.021Z,9.20
2023-01-29T04:32:11.346Z,10.10
2023-01-29T04:37:19.544Z,8.60
2023-01-29T04:42:31.267Z,9.20
2023-01-29T04:47:40.097Z,7.90
2023-01-29T04:52:47.585Z,9.70
2023-01-29T04:58:07.515Z,8.80
2023-01-29T05:03:13.421Z,10.40
2023-01-29T05:08:20.776Z,10.20
2023-01-29T05:13:24.687Z,9.90
2023-01-29T05:18:26.457Z,13.10
2023-01-29T05:23:28.276Z,9.70
2023-01-29T05:28:31.146Z,10.00
2023-01-29T05:33:32.650Z,12.90
2023-01-29T05:38:34.547Z,12.50
2023-01-29T05:43:36.378Z,13.50
2023-01-29T05:48:38.269Z,19.30
2023-01-29T05:53:39.948Z,13.90
2023-01-29T05:58:41.483Z,12.90
2023-01-29T06:03:43.738Z,11.80
2023-01-29T06:08:45.466Z,12.40
2023-01-29T06:13:47.893Z,11.30
2023-01-29T06:18:49.402Z,12.70
2023-01-29T06:23:53.803Z,13.20
2023-01-29T06:28:55.438Z,10.20
2023-01-29T06:33:57.117Z,10.30
2023-01-29T06:38:58.621Z,10.30
2023-01-29T06:44:00.249Z,11.10
2023-01-29T06:49:01.821Z,8.90
2023-01-29T06:54:03.522Z,11.20
2023-01-29T06:59:05.859Z,19.80
2023-01-29T07:04:07.675Z,19.70
2023-01-29T07:09:12.769Z,11.70
2023-01-29T07:14:14.800Z,11.50
2023-01-29T07:19:16.317Z,19.00
2023-01-29T07:24:19.479Z,22.70
2023-01-29T07:29:21.101Z,17.00
2023-01-29T07:34:22.576Z,15.50
2023-01-29T07:39:24.092Z,12.30
2023-01-29T07:44:25.564Z,18.00
2023-01-29T07:49:27.049Z,15.90
2023-01-29T07:54:28.852Z,13.00
2023-01-29T07:59:31.183Z,16.20
2023-01-29T08:04:32.683Z,26.10
2023-01-29T08:09:34.338Z,25.00
2023-01-29T08:14:36.087Z,18.00
2023-01-29T08:19:37.588Z,11.90
2023-01-29T08:24:53.324Z,15.70
2023-01-29T08:29:56.117Z,18.80
2023-01-29T08:34:57.712Z,15.40
2023-01-29T08:39:59.484Z,12.50
2023-01-29T08:45:01.010Z,16.00
2023-01-29T08:50:02.786Z,14.70
2023-01-29T08:55:04.656Z,15.50
2023-01-29T09:00:07.971Z,12.90
2023-01-29T09:05:10.219Z,9.60
2023-01-29T09:10:12.350Z,13.80
2023-01-29T09:15:13.924Z,13.80
2023-01-29T09:20:15.991Z,12.70
2023-01-29T09:25:17.936Z,12.70
2023-01-29T09:30:19.788Z,14.10
2023-01-29T09:35:23.038Z,15.30
2023-01-29T09:40:45.731Z,12.60
2023-01-29T09:45:58.647Z,19.50
2023-01-29T09:51:06.598Z,13.80
2023-01-29T09:56:18.578Z,14.20
2023-01-29T10:01:29.561Z,13.10
2023-01-29T10:06:47.669Z,13.30
2023-01-29T10:12:28.317Z,13.70
2023-01-29T10:17:54.096Z,14.50
2023-01-29T10:23:12.819Z,12.50
2023-01-29T10:28:18.700Z,16.00
2023-01-29T10:33:49.372Z,15.00
2023-01-29T10:38:56.393Z,12.30
2023-01-29T10:44:05.476Z,15.60
2023-01-29T10:49:37.903Z,12.10
2023-01-29T10:55:15.227Z,12.10
2023-01-29T11:00:25.003Z,14.40
2023-01-29T11:05:33.100Z,15.20
2023-01-29T11:10:42.008Z,13.90
2023-01-29T11:15:43.889Z,13.80
2023-01-29T11:20:47.117Z,14.00
2023-01-29T11:25:53.674Z,11.60
2023-01-29T11:30:55.517Z,15.30
2023-01-29T11:35:58.104Z,13.10
2023-01-29T11:41:18.834Z,16.10
2023-01-29T11:46:20.868Z,14.00
2023-01-29T11:51:27.088Z,12.60
2023-01-29T11:56:49.221Z,10.90
2023-01-29T12:01:50.821Z,12.00
2023-01-29T12:06:54.063Z,17.70
2023-01-29T12:11:56.217Z,14.30
2023-01-29T12:17:11.731Z,14.40
2023-01-29T12:22:31.404Z,14.30
2023-01-29T12:27:48.083Z,13.70
2023-01-29T12:32:55.623Z,12.90
2023-01-29T12:38:20.351Z,11.80
2023-01-29T12:43:27.593Z,12.80
2023-01-29T12:48:34.466Z,13.30
2023-01-29T12:53:42.216Z,14.90
2023-01-29T12:58:51.424Z,12.80
2023-01-29T13:04:02.726Z,14.90
2023-01-29T13:09:09.967Z,14.40
2023-01-29T13:14:33.348Z,15.40
2023-01-29T13:19:40.484Z,14.80
2023-01-29T13:24:55.508Z,16.60
2023-01-29T13:30:06.128Z,17.60
2023-01-29T13:35:14.941Z,14.80
2023-01-29T13:40:25.803Z,14.20
2023-01-29T13:45:35.109Z,10.70
2023-01-29T13:50:40.385Z,14.60
2023-01-29T13:55:41.967Z,17.10
2023-01-29T14:00:43.625Z,15.40
2023-01-29T14:05:58.434Z,24.20
2023-01-29T14:11:15.403Z,27.00
2023-01-29T14:16:16.932Z,21.40
2023-01-29T14:21:31.844Z,19.10
2023-01-29T14:26:43.681Z,19.30
2023-01-29T14:31:51.101Z,21.30
2023-01-29T14:36:56.768Z,16.60
2023-01-29T14:41:59.837Z,18.00
2023-01-29T14:47:01.357Z,19.20
2023-01-29T14:52:03.772Z,15.30
2023-01-29T14:57:09.048Z,21.40
2023-01-29T15:02:38.426Z,19.90
2023-01-29T15:07:49.530Z,21.40
2023-01-29T15:13:17.799Z,23.80
2023-01-29T15:18:43.893Z,24.60
2023-01-29T15:23:48.907Z,25.40
2023-01-29T15:29:04.156Z,28.30
2023-01-29T15:34:07.741Z,23.40
2023-01-29T15:39:09.244Z,24.60
2023-01-29T15:44:16.820Z,30.30
2023-01-29T15:49:38.003Z,24.60
2023-01-29T15:54:39.727Z,26.00
2023-01-29T15:59:44.986Z,24.70
2023-01-29T16:04:46.837Z,27.90
2023-01-29T16:09:49.859Z,32.70
2023-01-29T16:14:52.584Z,27.40
2023-01-29T16:20:01.401Z,28.80
2023-01-29T16:25:12.504Z,30.90
2023-01-29T16:30:16.538Z,31.40
2023-01-29T16:35:19.082Z,27.60
2023-01-29T16:40:27.219Z,27.20
2023-01-29T16:45:29.609Z,24.90
2023-01-29T16:50:40.671Z,24.10
2023-01-29T16:55:49.659Z,27.80
2023-01-29T17:01:13.706Z,27.10
2023-01-29T17:06:26.644Z,29.80
2023-01-29T17:11:31.213Z,23.20
2023-01-29T17:16:36.210Z,20.80
2023-01-29T17:21:37.737Z,25.20
2023-01-29T17:26:40.017Z,20.30
2023-01-29T17:31:42.864Z,26.00
2023-01-29T17:36:45.154Z,27.70
2023-01-29T17:41:52.651Z,24.50
2023-01-29T17:46:55.711Z,24.80
2023-01-29T17:51:57.706Z,25.50
2023-01-29T17:56:59.571Z,29.40
2023-01-29T18:02:01.220Z,30.70
2023-01-29T18:07:02.806Z,32.20
2023-01-29T18:12:10.297Z,28.40
2023-01-29T18:17:11.842Z,22.60
2023-01-29T18:22:14.049Z,25.80
2023-01-29T18:27:15.752Z,29.70
2023-01-29T18:32:17.642Z,28.00
2023-01-29T18:37:19.341Z,25.00
2023-01-29T18:42:21.068Z,25.20
2023-01-29T18:47:23.718Z,24.90
2023-01-29T18:52:26.191Z,28.40
2023-01-29T18:58:28.577Z,30.50
2023-01-29T19:02:50.804Z,30.80
2023-01-29T19:07:52.468Z,29.00
2023-01-29T19:12:54.157Z,27.00
2023-01-29T19:17:56.454Z,28.00
2023-01-29T19:22:58.329Z,26.20
2023-01-29T19:27:59.957Z,27.30
2023-01-29T19:33:01.615Z,26.90
2023-01-29T19:38:04.698Z,30.90
2023-01-29T19:43:06.436Z,27.00
2023-01-29T19:48:08.304Z,28.30
2023-01-29T19:53:10.051Z,29.80
2023-01-29T19:58:11.616Z,32.30
2023-01-29T20:03:15.356Z,31.10
2023-01-29T20:08:17.563Z,27.30
2023-01-29T20:13:19.568Z,28.00
2023-01-29T20:18:21.784Z,32.80
2023-01-29T20:23:37.291Z,19.50
2023-01-29T20:28:39.840Z,27.80
2023-01-29T20:33:41.878Z,27.30
2023-01-29T20:38:43.450Z,24.40
2023-01-29T20:43:46.915Z,27.70
2023-01-29T20:48:49.477Z,26.00
2023-01-29T20:53:51.385Z,26.40
2023-01-29T20:58:53.068Z,22.80
2023-01-29T21:03:54.544Z,21.60
2023-01-29T21:08:56.095Z,26.40
2023-01-29T21:13:57.895Z,27.20
2023-01-29T21:19:00.032Z,30.00
2023-01-29T21:24:01.624Z,23.50
2023-01-29T21:29:03.170Z,25.40
2023-01-29T21:34:05.217Z,21.10
2023-01-29T21:39:16.805Z,26.60
2023-01-29T21:44:18.319Z,25.90
2023-01-29T21:49:19.964Z,32.70
2023-01-29T21:54:21.479Z,31.10
2023-01-29T21:59:24.069Z,22.60
2023-01-29T22:04:26.645Z,25.70
2023-01-29T22:09:28.176Z,27.20
2023-01-29T22:14:29.753Z,21.50
2023-01-29T22:19:31.262Z,25.90
2023-01-29T22:24:33.047Z,23.10
2023-01-29T22:29:35.045Z,25.00
2023-01-29T22:34:36.995Z,25.10
2023-01-29T22:39:38.492Z,27.30
2023-01-29T22:44:40.352Z,25.40
2023-01-29T22:49:42.775Z,25.30
2023-01-29T22:54:44.536Z,25.60
2023-01-29T22:59:46.094Z,25.40
2023-01-29T23:04:47.645Z,26.50
2023-01-29T23:09:49.178Z,27.10
2023-01-29T23:14:50.679Z,18.50
2023-01-29T23:19:52.191Z,23.20
2023-01-29T23:24:53.722Z,24.90
2023-01-29T23:29:55.334Z,23.30
2023-01-29T23:34:57.115Z,23.90
2023-01-29T23:39:58.603Z,23.30
2023-01-29T23:45:00.144Z,25.00
2023-01-29T23:50:01.796Z,20.90
2023-01-29T23:55:05.035Z,20.30
